createdAt,value
2019-02-20T00:01:08.179Z,11.20
2019-02-20T00:03:34.364Z,11.07
2019-02-20T00:06:00.711Z,10.20
2019-02-20T00:08:27.990Z,10.43
2019-02-20T00:10:54.084Z,11.70
2019-02-20T00:13:20.301Z,10.90
2019-02-20T00:15:48.114Z,11.53
2019-02-20T00:18:14.297Z,11.03
2019-02-20T00:20:41.669Z,10.73
2019-02-20T00:23:07.778Z,11.50
2019-02-20T00:25:34.850Z,11.33
2019-02-20T00:28:01.099Z,11.40
2019-02-20T00:30:27.399Z,10.93
2019-02-20T00:32:53.552Z,11.80
2019-02-20T00:35:19.714Z,11.60
2019-02-20T00:37:47.029Z,10.50
2019-02-20T00:40:13.258Z,11.57
2019-02-20T00:42:39.688Z,11.03
2019-02-20T00:45:12.470Z,11.60
2019-02-20T00:47:52.077Z,11.53
2019-02-20T00:50:19.473Z,11.78
2019-02-20T00:52:59.252Z,12.13
2019-02-20T00:55:26.969Z,10.60
2019-02-20T00:57:53.044Z,12.43
2019-02-20T01:00:19.557Z,13.25
2019-02-20T01:02:45.843Z,12.55
2019-02-20T01:05:14.598Z,12.37
2019-02-20T01:07:49.912Z,13.43
2019-02-20T01:10:17.067Z,12.80
2019-02-20T01:12:43.204Z,13.58
2019-02-20T01:15:10.040Z,13.13
2019-02-20T01:17:36.366Z,13.80
2019-02-20T01:20:04.551Z,13.07
2019-02-20T01:22:31.963Z,13.72
2019-02-20T01:24:58.195Z,14.78
2019-02-20T01:27:26.161Z,13.95
2019-02-20T01:29:52.332Z,13.60
2019-02-20T01:32:18.704Z,14.78
2019-02-20T01:34:44.792Z,14.53
2019-02-20T01:37:10.898Z,14.65
2019-02-20T01:39:37.133Z,15.60
2019-02-20T01:42:03.247Z,15.32
2019-02-20T01:44:30.599Z,15.85
2019-02-20T01:46:57.918Z,15.63
2019-02-20T01:49:24.465Z,15.40
2019-02-20T01:51:54.639Z,14.93
2019-02-20T01:54:18.694Z,15.68
2019-02-20T01:56:47.031Z,17.00
2019-02-20T01:59:13.545Z,15.80
2019-02-20T02:01:41.183Z,16.50
2019-02-20T02:04:10.199Z,17.25
2019-02-20T02:06:36.269Z,16.48
2019-02-20T02:09:05.229Z,16.65
2019-02-20T02:11:31.332Z,16.73
2019-02-20T02:13:58.336Z,17.07
2019-02-20T02:16:25.677Z,16.10
2019-02-20T02:18:54.209Z,17.40
2019-02-20T02:21:21.973Z,19.15
2019-02-20T02:23:48.646Z,17.60
2019-02-20T02:26:14.900Z,17.10
2019-02-20T02:28:41.186Z,18.35
2019-02-20T02:31:08.155Z,18.27
2019-02-20T02:33:34.221Z,17.82
2019-02-20T02:36:00.366Z,17.52
2019-02-20T02:38:31.862Z,18.00
2019-02-20T02:40:57.942Z,19.75
2019-02-20T02:43:24.180Z,17.50
2019-02-20T02:45:50.280Z,20.30
2019-02-20T02:48:16.341Z,20.02
2019-02-20T02:50:42.457Z,18.55
2019-02-20T02:53:08.497Z,19.55
2019-02-20T02:55:34.635Z,18.52
2019-02-20T02:58:02.653Z,19.80
2019-02-20T03:00:30.611Z,19.20
2019-02-20T03:02:59.740Z,19.20
2019-02-20T03:05:25.843Z,20.20
2019-02-20T03:07:55.804Z,18.80
2019-02-20T03:10:21.976Z,18.67
2019-02-20T03:12:48.121Z,20.10
2019-02-20T03:15:14.324Z,19.70
2019-02-20T03:17:40.393Z,20.82
2019-02-20T03:20:07.497Z,21.05
2019-02-20T03:22:33.616Z,21.65
2019-02-20T03:24:59.802Z,21.12
2019-02-20T03:27:26.049Z,20.72
2019-02-20T03:29:52.076Z,21.97
2019-02-20T03:32:20.069Z,22.22
2019-02-20T03:34:46.148Z,21.75
2019-02-20T03:37:13.383Z,21.50
2019-02-20T03:39:42.222Z,23.35
2019-02-20T03:42:08.334Z,23.47
2019-02-20T03:44:34.438Z,24.25
2019-02-20T03:47:01.894Z,22.60
2019-02-20T03:49:28.041Z,23.98
2019-02-20T03:51:54.227Z,24.90
2019-02-20T03:54:26.560Z,24.37
2019-02-20T03:56:53.781Z,25.05
2019-02-20T03:59:19.805Z,25.40
2019-02-20T04:01:46.038Z,22.95
2019-02-20T04:04:12.143Z,24.05
2019-02-20T04:06:38.225Z,24.25
2019-02-20T04:09:04.902Z,25.15
2019-02-20T04:11:31.252Z,23.67
2019-02-20T04:13:57.364Z,24.67
2019-02-20T04:16:23.561Z,22.80
2019-02-20T04:18:49.721Z,23.65
2019-02-20T04:21:15.944Z,24.27
2019-02-20T04:23:42.144Z,25.48
2019-02-20T04:26:09.861Z,24.15
2019-02-20T04:28:36.167Z,22.77
2019-02-20T04:31:04.044Z,22.95
2019-02-20T04:33:30.850Z,23.60
2019-02-20T04:35:56.929Z,26.42
2019-02-20T04:38:23.097Z,23.05
2019-02-20T04:40:49.223Z,24.27
2019-02-20T04:43:16.367Z,23.25
2019-02-20T04:45:43.802Z,24.82
2019-02-20T04:48:10.099Z,23.65
2019-02-20T04:50:38.101Z,23.42
2019-02-20T04:53:04.360Z,23.95
2019-02-20T04:55:30.556Z,24.20
2019-02-20T04:58:12.489Z,26.12
2019-02-20T05:00:38.736Z,24.77
2019-02-20T05:03:04.847Z,25.17
2019-02-20T05:05:31.032Z,25.92
2019-02-20T05:07:57.084Z,31.52
2019-02-20T05:10:24.468Z,31.97
2019-02-20T05:12:50.615Z,25.37
2019-02-20T05:15:16.710Z,28.15
2019-02-20T05:17:42.789Z,25.72
2019-02-20T05:20:09.135Z,27.67
2019-02-20T05:22:35.205Z,26.20
2019-02-20T05:25:01.331Z,27.13
2019-02-20T05:27:27.627Z,28.00
2019-02-20T05:29:53.737Z,27.58
2019-02-20T05:32:19.829Z,28.00
2019-02-20T05:34:46.014Z,30.65
2019-02-20T05:37:12.084Z,28.00
2019-02-20T05:39:38.169Z,27.20
2019-02-20T05:42:04.222Z,30.25
2019-02-20T05:44:30.302Z,29.18
2019-02-20T05:46:56.423Z,31.33
2019-02-20T05:49:22.717Z,31.27
2019-02-20T05:51:48.774Z,29.87
2019-02-20T05:54:15.303Z,29.85
2019-02-20T05:56:44.046Z,29.55
2019-02-20T05:59:12.376Z,29.02
2019-02-20T06:01:39.414Z,29.02
2019-02-20T06:04:09.401Z,28.98
2019-02-20T06:06:35.534Z,29.30
2019-02-20T06:09:16.499Z,28.47
2019-02-20T06:11:42.653Z,30.43
2019-02-20T06:14:08.857Z,28.60
2019-02-20T06:16:35.240Z,30.17
2019-02-20T06:19:03.964Z,28.50
2019-02-20T06:21:31.890Z,29.40
2019-02-20T06:24:01.049Z,28.70
2019-02-20T06:26:27.165Z,28.25
2019-02-20T06:28:53.282Z,28.83
2019-02-20T06:31:21.908Z,29.30
2019-02-20T06:33:50.168Z,29.57
2019-02-20T06:36:16.286Z,30.17
2019-02-20T06:38:46.412Z,27.98
2019-02-20T06:41:12.517Z,31.12
2019-02-20T06:43:38.672Z,32.00
2019-02-20T06:46:04.813Z,30.30
2019-02-20T06:48:30.888Z,30.72
2019-02-20T06:50:59.074Z,31.48
2019-02-20T06:53:25.148Z,29.85
2019-02-20T06:55:51.227Z,36.63
2019-02-20T06:58:17.650Z,32.40
2019-02-20T07:00:45.047Z,32.40
2019-02-20T07:03:22.422Z,31.90
2019-02-20T07:05:49.594Z,32.63
2019-02-20T07:08:53.110Z,33.92
2019-02-20T07:11:44.425Z,32.03
2019-02-20T07:14:17.800Z,31.20
2019-02-20T07:16:53.006Z,32.13
2019-02-20T07:19:43.942Z,30.57
2019-02-20T07:22:20.912Z,32.25
2019-02-20T07:25:02.669Z,32.53
2019-02-20T07:27:37.728Z,31.25
2019-02-20T07:30:09.451Z,30.48
2019-02-20T07:32:36.212Z,29.32
2019-02-20T07:35:04.422Z,30.43
2019-02-20T07:37:31.516Z,28.95
2019-02-20T07:39:58.489Z,29.35
2019-02-20T07:42:24.542Z,29.20
2019-02-20T07:44:50.757Z,31.70
2019-02-20T07:47:19.944Z,28.40
2019-02-20T07:49:46.267Z,29.42
2019-02-20T07:52:12.393Z,31.27
2019-02-20T07:54:41.699Z,28.52
2019-02-20T07:57:10.063Z,30.37
2019-02-20T07:59:39.158Z,29.07
2019-02-20T08:02:06.246Z,32.35
2019-02-20T08:04:32.816Z,29.32
2019-02-20T08:06:59.044Z,34.67
2019-02-20T08:09:26.435Z,35.92
2019-02-20T08:11:52.839Z,33.67
2019-02-20T08:14:21.328Z,35.03
2019-02-20T08:16:52.337Z,36.40
2019-02-20T08:19:15.646Z,35.48
2019-02-20T08:21:44.527Z,34.30
2019-02-20T08:24:10.546Z,32.93
2019-02-20T08:26:39.285Z,33.30
2019-02-20T08:29:05.472Z,31.97
2019-02-20T08:31:32.605Z,32.67
2019-02-20T08:33:58.674Z,36.50
2019-02-20T08:36:25.788Z,36.23
2019-02-20T08:38:52.125Z,33.53
2019-02-20T08:41:18.207Z,32.42
2019-02-20T08:43:44.518Z,35.17
2019-02-20T08:46:11.735Z,34.40
2019-02-20T08:48:39.444Z,30.75
2019-02-20T08:51:05.614Z,32.05
2019-02-20T08:53:34.550Z,31.62
2019-02-20T08:56:03.052Z,30.10
2019-02-20T08:58:30.483Z,30.32
2019-02-20T09:00:56.970Z,29.85
2019-02-20T09:03:24.391Z,27.75
2019-02-20T09:05:50.472Z,31.93
2019-02-20T09:08:17.720Z,31.15
2019-02-20T09:10:45.932Z,33.02
2019-02-20T09:13:13.169Z,31.23
2019-02-20T09:15:39.653Z,29.12
2019-02-20T09:18:05.766Z,30.00
2019-02-20T09:20:33.257Z,30.57
2019-02-20T09:23:02.384Z,29.40
2019-02-20T09:25:28.521Z,29.60
2019-02-20T09:27:54.837Z,28.65
2019-02-20T09:30:28.311Z,32.23
2019-02-20T09:32:53.474Z,31.00
2019-02-20T09:35:19.600Z,30.00
2019-02-20T09:37:49.770Z,29.77
2019-02-20T09:40:18.416Z,27.83
2019-02-20T09:42:47.289Z,29.07
2019-02-20T09:45:13.529Z,28.40
2019-02-20T09:47:39.859Z,27.93
2019-02-20T09:50:09.364Z,29.00
2019-02-20T09:52:35.399Z,29.07
2019-02-20T09:55:01.498Z,26.70
2019-02-20T09:57:28.923Z,25.30
2019-02-20T09:59:57.317Z,26.07
2019-02-20T10:02:23.439Z,23.70
2019-02-20T10:04:49.485Z,23.87
2019-02-20T10:07:15.579Z,22.40
2019-02-20T10:09:42.428Z,24.17
2019-02-20T10:12:08.527Z,22.70
2019-02-20T10:14:34.588Z,23.17
2019-02-20T10:17:00.610Z,22.63
2019-02-20T10:19:26.653Z,21.97
2019-02-20T10:21:54.710Z,22.20
2019-02-20T10:24:21.903Z,21.40
2019-02-20T10:26:48.139Z,20.43
2019-02-20T10:29:14.231Z,21.20
2019-02-20T10:31:43.823Z,20.30
2019-02-20T10:34:11.574Z,20.27
2019-02-20T10:36:37.757Z,21.80
2019-02-20T10:39:04.604Z,21.40
2019-02-20T10:41:30.804Z,22.40
2019-02-20T10:43:56.957Z,22.50
2019-02-20T10:46:28.461Z,21.17
2019-02-20T10:48:54.743Z,21.50
2019-02-20T10:51:21.006Z,21.50
2019-02-20T10:53:48.243Z,20.53
2019-02-20T10:56:14.416Z,20.27
2019-02-20T10:58:40.541Z,20.17
2019-02-20T11:01:10.558Z,22.40
2019-02-20T11:03:36.666Z,19.47
2019-02-20T11:06:02.877Z,20.17
2019-02-20T11:08:31.956Z,21.43
2019-02-20T11:10:58.019Z,20.20
2019-02-20T11:13:24.092Z,19.33
2019-02-20T11:15:50.330Z,20.70
2019-02-20T11:18:17.890Z,20.30
2019-02-20T11:20:48.412Z,20.40
2019-02-20T11:23:13.274Z,21.27
2019-02-20T11:25:39.368Z,21.47
2019-02-20T11:28:05.729Z,19.27
2019-02-20T11:30:31.961Z,18.80
2019-02-20T11:32:59.572Z,19.47
2019-02-20T11:35:25.742Z,19.07
2019-02-20T11:38:02.096Z,17.80
2019-02-20T11:40:28.178Z,17.50
2019-02-20T11:42:56.254Z,16.80
2019-02-20T11:45:22.426Z,16.40
2019-02-20T11:47:49.105Z,16.40
2019-02-20T11:50:15.652Z,17.00
2019-02-20T11:52:42.496Z,16.87
2019-02-20T11:55:13.050Z,17.07
2019-02-20T11:57:40.820Z,15.60
2019-02-20T12:00:10.439Z,15.20
2019-02-20T12:02:38.661Z,15.23
2019-02-20T12:05:08.361Z,17.03
2019-02-20T12:07:34.569Z,16.20
2019-02-20T12:10:02.149Z,13.93
2019-02-20T12:12:30.896Z,15.40
2019-02-20T12:14:58.065Z,13.30
2019-02-20T12:17:26.139Z,12.87
2019-02-20T12:19:58.852Z,15.43
2019-02-20T12:22:24.947Z,14.50
2019-02-20T12:24:51.027Z,14.23
2019-02-20T12:27:17.409Z,13.63
2019-02-20T12:29:43.959Z,13.80
2019-02-20T12:32:12.490Z,13.53
2019-02-20T12:34:38.764Z,12.80
2019-02-20T12:37:05.886Z,11.83
2019-02-20T12:39:31.976Z,13.53
2019-02-20T12:41:58.242Z,12.40
2019-02-20T12:44:24.413Z,13.00
2019-02-20T12:46:52.467Z,13.10
2019-02-20T12:49:18.610Z,16.17
2019-02-20T12:51:46.716Z,14.77
2019-02-20T12:54:20.394Z,14.37
2019-02-20T12:56:48.079Z,15.83
2019-02-20T12:59:14.257Z,15.83
2019-02-20T13:01:40.410Z,15.60
2019-02-20T13:04:06.891Z,15.10
2019-02-20T13:06:33.009Z,15.80
2019-02-20T13:08:59.825Z,16.10
2019-02-20T13:11:26.076Z,17.10
2019-02-20T13:13:52.131Z,17.37
2019-02-20T13:16:18.267Z,16.57
2019-02-20T13:18:45.421Z,17.67
2019-02-20T13:21:11.533Z,19.50
2019-02-20T13:23:37.647Z,18.47
2019-02-20T13:26:05.702Z,18.43
2019-02-20T13:28:33.956Z,18.13
2019-02-20T13:31:01.269Z,15.60
2019-02-20T13:33:29.302Z,14.00
2019-02-20T13:35:55.807Z,15.13
2019-02-20T13:38:28.629Z,14.20
2019-02-20T13:40:54.780Z,13.60
2019-02-20T13:43:20.813Z,15.03
2019-02-20T13:45:46.986Z,13.57
2019-02-20T13:48:13.200Z,14.03
2019-02-20T13:50:39.301Z,13.47
2019-02-20T13:53:05.463Z,12.53
2019-02-20T13:55:34.382Z,12.33
2019-02-20T13:58:01.026Z,11.70
2019-02-20T14:00:27.138Z,11.90
2019-02-20T14:02:55.853Z,13.27
2019-02-20T14:05:29.059Z,11.97
2019-02-20T14:08:00.862Z,10.63
2019-02-20T14:10:29.281Z,12.60
2019-02-20T14:12:55.519Z,11.37
2019-02-20T14:15:21.879Z,12.10
2019-02-20T14:17:48.272Z,12.07
2019-02-20T14:20:14.408Z,11.17
2019-02-20T14:22:41.885Z,11.27
2019-02-20T14:25:09.179Z,10.97
2019-02-20T14:27:35.254Z,10.47
2019-02-20T14:30:01.305Z,11.07
2019-02-20T14:32:27.941Z,11.37
2019-02-20T14:34:54.443Z,11.40
2019-02-20T14:37:20.528Z,12.83
2019-02-20T14:39:49.404Z,11.50
2019-02-20T14:42:15.846Z,11.30
2019-02-20T14:44:41.966Z,12.10
2019-02-20T14:47:08.251Z,10.93
2019-02-20T14:49:34.353Z,11.17
2019-02-20T14:52:00.492Z,11.97
2019-02-20T14:54:28.967Z,12.10
2019-02-20T14:56:57.763Z,10.93
2019-02-20T14:59:23.991Z,10.80
2019-02-20T15:01:51.804Z,11.70
2019-02-20T15:04:20.285Z,11.07
2019-02-20T15:06:49.106Z,11.67
2019-02-20T15:09:16.412Z,10.50
2019-02-20T15:11:42.571Z,11.50
2019-02-20T15:14:11.828Z,12.80
2019-02-20T15:16:41.179Z,10.17
2019-02-20T15:19:07.579Z,10.00
2019-02-20T15:21:37.967Z,11.83
2019-02-20T15:24:04.356Z,10.27
2019-02-20T15:26:31.964Z,10.00
2019-02-20T15:28:59.368Z,9.93
2019-02-20T15:31:33.656Z,11.53
2019-02-20T15:33:55.612Z,9.50
2019-02-20T15:36:29.698Z,9.03
2019-02-20T15:38:55.945Z,9.93
2019-02-20T15:41:23.609Z,9.57
2019-02-20T15:43:51.528Z,10.23
2019-02-20T15:46:20.149Z,10.60
2019-02-20T15:48:46.375Z,9.67
2019-02-20T15:51:12.743Z,9.67
2019-02-20T15:53:39.296Z,9.47
2019-02-20T15:56:09.555Z,10.10
2019-02-20T15:58:35.654Z,10.67
2019-02-20T16:01:06.136Z,9.77
2019-02-20T16:03:32.576Z,11.37
2019-02-20T16:06:01.156Z,10.53
2019-02-20T16:08:27.302Z,10.63
2019-02-20T16:10:55.149Z,13.03
2019-02-20T16:13:21.719Z,12.00
2019-02-20T16:15:48.911Z,11.63
2019-02-20T16:18:19.935Z,12.60
2019-02-20T16:20:46.325Z,10.67
2019-02-20T16:23:12.577Z,12.13
2019-02-20T16:25:39.903Z,12.20
2019-02-20T16:28:07.488Z,14.10
2019-02-20T16:30:36.092Z,13.77
2019-02-20T16:33:02.352Z,13.47
2019-02-20T16:35:29.873Z,14.60
2019-02-20T16:37:56.270Z,14.63
2019-02-20T16:40:23.431Z,14.00
2019-02-20T16:42:49.788Z,14.00
2019-02-20T16:45:21.586Z,14.43
2019-02-20T16:47:48.154Z,14.60
2019-02-20T16:50:16.224Z,14.93
2019-02-20T16:52:47.417Z,14.43
2019-02-20T16:55:19.171Z,15.80
2019-02-20T16:57:44.104Z,15.40
2019-02-20T17:00:26.239Z,14.40
2019-02-20T17:02:53.154Z,15.83
2019-02-20T17:05:19.368Z,15.60
2019-02-20T17:07:48.307Z,15.63
2019-02-20T17:10:17.111Z,12.20
2019-02-20T17:12:43.803Z,15.23
2019-02-20T17:15:11.857Z,15.47
2019-02-20T17:17:37.985Z,13.90
2019-02-20T17:20:19.669Z,16.27
2019-02-20T17:22:48.997Z,17.53
2019-02-20T17:25:17.362Z,19.33
2019-02-20T17:27:46.311Z,19.30
2019-02-20T17:30:14.683Z,17.90
2019-02-20T17:32:40.831Z,19.60
2019-02-20T17:35:08.593Z,17.67
2019-02-20T17:37:34.989Z,17.27
2019-02-20T17:40:02.384Z,20.43
2019-02-20T17:42:28.576Z,22.80
2019-02-20T17:44:54.962Z,23.03
2019-02-20T17:47:21.178Z,20.87
2019-02-20T17:49:47.713Z,22.33
2019-02-20T17:52:15.227Z,19.50
2019-02-20T17:54:41.483Z,20.80
2019-02-20T17:57:07.948Z,18.87
2019-02-20T17:59:35.400Z,18.80
2019-02-20T18:02:02.703Z,18.30
2019-02-20T18:04:29.229Z,18.77
2019-02-20T18:06:55.542Z,25.80
2019-02-20T18:09:22.865Z,20.80
2019-02-20T18:11:49.056Z,19.63
2019-02-20T18:14:15.275Z,18.23
2019-02-20T18:16:41.561Z,17.47
2019-02-20T18:19:07.834Z,18.10
2019-02-20T18:21:33.892Z,17.47
2019-02-20T18:24:01.096Z,17.83
2019-02-20T18:26:29.203Z,18.90
2019-02-20T18:28:59.669Z,19.70
2019-02-20T18:31:29.307Z,18.77
2019-02-20T18:33:58.171Z,19.57
2019-02-20T18:36:24.490Z,17.17
2019-02-20T18:38:54.102Z,16.90
2019-02-20T18:41:20.730Z,18.90
2019-02-20T18:43:51.882Z,20.83
2019-02-20T18:46:20.175Z,29.20
2019-02-20T18:48:46.750Z,35.67
2019-02-20T18:51:14.227Z,45.43
2019-02-20T18:53:40.368Z,37.20
2019-02-20T18:56:06.513Z,32.57
2019-02-20T18:58:34.439Z,38.80
2019-02-20T19:01:01.000Z,36.53
2019-02-20T19:03:27.294Z,46.20
2019-02-20T19:05:57.827Z,45.50
2019-02-20T19:08:34.664Z,29.80
2019-02-20T19:11:10.594Z,30.37
2019-02-20T19:14:01.890Z,26.30
2019-02-20T19:16:45.152Z,24.07
2019-02-20T19:19:27.225Z,24.10
2019-02-20T19:22:13.221Z,24.00
2019-02-20T19:25:19.331Z,23.27
2019-02-20T19:27:50.456Z,23.23
2019-02-20T19:30:44.524Z,24.67
2019-02-20T19:33:32.049Z,22.77
2019-02-20T19:36:03.110Z,22.27
2019-02-20T19:38:54.108Z,20.93
2019-02-20T19:41:26.895Z,23.43
2019-02-20T19:44:12.852Z,24.10
2019-02-20T19:46:52.971Z,26.67
2019-02-20T19:49:38.296Z,28.03
2019-02-20T19:52:38.371Z,24.10
2019-02-20T19:55:29.566Z,24.53
2019-02-20T19:58:02.511Z,29.20
2019-02-20T20:00:36.497Z,28.23
2019-02-20T20:03:30.407Z,26.77
2019-02-20T20:06:16.941Z,26.87
2019-02-20T20:08:49.603Z,28.87
2019-02-20T20:11:44.767Z,25.40
2019-02-20T20:14:34.360Z,27.00
2019-02-20T20:17:39.121Z,25.23
2019-02-20T20:20:25.084Z,25.53
2019-02-20T20:23:21.450Z,23.37
2019-02-20T20:26:37.048Z,24.03
2019-02-20T20:29:07.048Z,22.37
2019-02-20T20:31:49.184Z,23.57
2019-02-20T20:34:35.690Z,23.73
2019-02-20T20:37:20.113Z,22.30
2019-02-20T20:39:59.312Z,21.47
2019-02-20T20:42:35.028Z,21.30
2019-02-20T20:45:17.633Z,20.83
2019-02-20T20:48:11.853Z,22.97
2019-02-20T20:51:11.631Z,22.20
2019-02-20T20:54:16.019Z,21.70
2019-02-20T20:57:15.149Z,23.00
2019-02-20T20:59:54.735Z,23.50
2019-02-20T21:02:31.898Z,21.43
2019-02-20T21:05:14.462Z,20.17
2019-02-20T21:07:59.455Z,19.40
2019-02-20T21:10:50.725Z,19.15
2019-02-20T21:13:37.397Z,20.77
2019-02-20T21:16:23.611Z,19.57
2019-02-20T21:18:59.747Z,18.60
2019-02-20T21:22:03.199Z,16.43
2019-02-20T21:24:39.277Z,17.03
2019-02-20T21:27:11.808Z,16.20
2019-02-20T21:29:47.745Z,15.43
2019-02-20T21:32:39.369Z,16.60
2019-02-20T21:35:16.244Z,17.00
2019-02-20T21:38:09.889Z,17.40
2019-02-20T21:40:47.918Z,20.70
2019-02-20T21:43:35.477Z,24.03
2019-02-20T21:46:20.567Z,22.50
2019-02-20T21:49:10.780Z,21.60
2019-02-20T21:51:51.972Z,22.57
2019-02-20T21:54:41.109Z,22.27
2019-02-20T21:57:23.960Z,21.83
2019-02-20T22:00:07.081Z,23.77
2019-02-20T22:02:40.503Z,22.97
2019-02-20T22:05:19.344Z,25.70
2019-02-20T22:07:56.876Z,23.80
2019-02-20T22:10:56.510Z,24.53
2019-02-20T22:13:51.327Z,24.87
2019-02-20T22:16:21.431Z,23.27
2019-02-20T22:19:00.359Z,25.13
2019-02-20T22:21:45.935Z,25.40
2019-02-20T22:24:40.243Z,63.37
2019-02-20T22:27:28.382Z,28.27
2019-02-20T22:29:58.455Z,27.10
2019-02-20T22:32:43.298Z,23.97
2019-02-20T22:35:22.205Z,22.53
2019-02-20T22:38:01.155Z,23.40
2019-02-20T22:40:36.725Z,23.30
2019-02-20T22:43:30.988Z,21.63
2019-02-20T22:46:14.254Z,24.10
2019-02-20T22:48:44.171Z,22.40
2019-02-20T22:51:35.549Z,24.03
2019-02-20T22:54:20.006Z,25.53
2019-02-20T22:57:04.789Z,24.37
2019-02-20T23:00:01.537Z,24.80
2019-02-20T23:02:31.807Z,23.50
2019-02-20T23:05:16.560Z,23.87
2019-02-20T23:07:52.312Z,24.17
2019-02-20T23:10:55.320Z,23.97
2019-02-20T23:13:48.149Z,22.90
2019-02-20T23:16:14.208Z,23.30
2019-02-20T23:18:41.615Z,21.63
2019-02-20T23:21:09.624Z,20.50
2019-02-20T23:23:38.813Z,20.90
2019-02-20T23:26:04.964Z,19.77
2019-02-20T23:28:32.142Z,19.73
2019-02-20T23:31:08.302Z,20.73
2019-02-20T23:33:34.464Z,23.83
2019-02-20T23:36:00.612Z,19.73
2019-02-20T23:38:28.161Z,23.10
2019-02-20T23:40:57.414Z,21.57
2019-02-20T23:43:31.378Z,22.33
2019-02-20T23:45:57.389Z,22.30
2019-02-20T23:48:25.161Z,21.87
2019-02-20T23:50:54.020Z,22.10
2019-02-20T23:53:20.148Z,22.90
2019-02-20T23:55:46.386Z,24.43
2019-02-20T23:58:12.499Z,23.40
